createdAt,value
2018-12-03T00:01:31.171Z,46.10
2018-12-03T00:04:15.302Z,46.00
2018-12-03T00:06:43.928Z,45.70
2018-12-03T00:09:12.110Z,45.80
2018-12-03T00:11:40.192Z,45.50
2018-12-03T00:14:08.410Z,45.40
2018-12-03T00:16:36.504Z,45.30
2018-12-03T00:19:04.890Z,45.60
2018-12-03T00:21:33.033Z,45.10
2018-12-03T00:24:01.131Z,44.90
2018-12-03T00:26:29.266Z,45.00
2018-12-03T00:28:57.432Z,44.80
2018-12-03T00:31:25.580Z,44.60
2018-12-03T00:33:53.714Z,45.10
2018-12-03T00:36:21.815Z,44.40
2018-12-03T00:38:50.046Z,44.40
2018-12-03T00:41:18.170Z,44.10
2018-12-03T00:43:46.289Z,44.10
2018-12-03T00:46:14.387Z,43.90
2018-12-03T00:48:42.536Z,43.80
2018-12-03T00:51:10.658Z,43.70
2018-12-03T00:53:38.811Z,43.70
2018-12-03T00:56:06.935Z,43.40
2018-12-03T00:58:35.119Z,43.40
2018-12-03T01:01:03.225Z,43.10
2018-12-03T01:03:31.615Z,43.00
2018-12-03T01:05:59.700Z,42.90
2018-12-03T01:08:27.845Z,42.70
2018-12-03T01:10:55.971Z,42.40
2018-12-03T01:13:24.256Z,42.40
2018-12-03T01:15:52.912Z,42.20
2018-12-03T01:18:21.164Z,42.20
2018-12-03T01:20:49.328Z,42.00
2018-12-03T01:23:17.426Z,41.70
2018-12-03T01:25:45.536Z,41.60
2018-12-03T01:28:13.630Z,41.40
2018-12-03T01:30:41.771Z,41.20
2018-12-03T01:33:09.863Z,41.10
2018-12-03T01:35:37.950Z,40.90
2018-12-03T01:38:06.630Z,40.90
2018-12-03T01:40:34.827Z,40.80
2018-12-03T01:43:03.007Z,40.70
2018-12-03T01:45:31.130Z,40.50
2018-12-03T01:47:59.458Z,40.40
2018-12-03T01:50:27.539Z,40.10
2018-12-03T01:52:55.715Z,39.90
2018-12-03T01:55:23.828Z,39.80
2018-12-03T01:57:51.951Z,39.70
2018-12-03T02:00:20.259Z,39.50
2018-12-03T02:02:48.403Z,39.40
2018-12-03T02:05:16.547Z,39.30
2018-12-03T02:07:44.643Z,39.20
2018-12-03T02:10:13.895Z,39.00
2018-12-03T02:12:41.991Z,38.80
2018-12-03T02:15:12.205Z,38.70
2018-12-03T02:17:40.817Z,38.50
2018-12-03T02:20:12.370Z,38.40
2018-12-03T02:22:40.785Z,38.60
2018-12-03T02:25:09.835Z,38.20
2018-12-03T02:27:37.956Z,38.00
2018-12-03T02:30:12.328Z,37.90
2018-12-03T02:32:47.151Z,37.70
2018-12-03T02:35:15.542Z,37.70
2018-12-03T02:37:43.659Z,37.80
2018-12-03T02:40:17.174Z,37.50
2018-12-03T02:42:45.303Z,37.20
2018-12-03T02:45:14.493Z,37.10
2018-12-03T02:47:42.620Z,37.00
2018-12-03T02:50:11.810Z,37.10
2018-12-03T02:52:40.079Z,36.80
2018-12-03T02:55:10.129Z,36.50
2018-12-03T02:57:38.275Z,36.50
2018-12-03T03:00:11.867Z,36.50
2018-12-03T03:02:39.974Z,36.30
2018-12-03T03:05:09.947Z,36.40
2018-12-03T03:07:38.138Z,36.40
2018-12-03T03:10:11.455Z,36.20
2018-12-03T03:12:39.725Z,36.30
2018-12-03T03:15:09.319Z,36.10
2018-12-03T03:17:37.579Z,36.20
2018-12-03T03:20:07.188Z,36.10
2018-12-03T03:22:35.301Z,36.10
2018-12-03T03:25:03.388Z,36.00
2018-12-03T03:27:31.489Z,36.00
2018-12-03T03:29:59.595Z,36.00
2018-12-03T03:32:27.696Z,36.00
2018-12-03T03:34:55.827Z,36.00
2018-12-03T03:37:23.955Z,35.80
2018-12-03T03:39:52.041Z,35.80
2018-12-03T03:42:20.147Z,36.30
2018-12-03T03:44:48.253Z,35.80
2018-12-03T03:47:16.399Z,35.80
2018-12-03T03:49:44.588Z,35.80
2018-12-03T03:52:12.680Z,35.80
2018-12-03T03:54:40.928Z,35.90
2018-12-03T03:57:09.020Z,35.90
2018-12-03T03:59:37.155Z,35.90
2018-12-03T04:02:05.267Z,35.90
2018-12-03T04:04:33.447Z,35.90
2018-12-03T04:07:01.612Z,36.50
2018-12-03T04:09:29.752Z,35.80
2018-12-03T04:11:57.904Z,35.90
2018-12-03T04:14:26.023Z,36.00
2018-12-03T04:16:54.331Z,35.80
2018-12-03T04:19:22.456Z,36.00
2018-12-03T04:21:50.578Z,36.60
2018-12-03T04:24:18.682Z,36.00
2018-12-03T04:26:46.786Z,36.10
2018-12-03T04:29:14.906Z,36.20
2018-12-03T04:31:43.043Z,36.10
2018-12-03T04:34:11.167Z,36.80
2018-12-03T04:36:39.259Z,36.20
2018-12-03T04:39:08.179Z,36.30
2018-12-03T04:41:36.340Z,36.30
2018-12-03T04:44:04.958Z,36.30
2018-12-03T04:46:33.100Z,36.50
2018-12-03T04:49:01.210Z,36.40
2018-12-03T04:51:29.328Z,36.60
2018-12-03T04:53:57.433Z,36.50
2018-12-03T04:56:25.514Z,36.70
2018-12-03T04:58:53.670Z,36.60
2018-12-03T05:01:21.789Z,36.70
2018-12-03T05:03:49.887Z,36.80
2018-12-03T05:06:17.995Z,36.80
2018-12-03T05:08:46.105Z,36.80
2018-12-03T05:11:14.207Z,36.80
2018-12-03T05:13:42.431Z,36.90
2018-12-03T05:16:10.583Z,37.00
2018-12-03T05:18:38.708Z,36.90
2018-12-03T05:21:06.814Z,37.00
2018-12-03T05:23:34.995Z,37.00
2018-12-03T05:26:03.096Z,37.00
2018-12-03T05:28:31.195Z,37.10
2018-12-03T05:30:59.497Z,37.10
2018-12-03T05:33:27.582Z,37.30
2018-12-03T05:35:55.767Z,37.40
2018-12-03T05:38:23.917Z,37.40
2018-12-03T05:40:52.067Z,37.40
2018-12-03T05:43:20.182Z,37.30
2018-12-03T05:45:48.281Z,38.10
2018-12-03T05:48:16.443Z,37.40
2018-12-03T05:50:44.551Z,37.50
2018-12-03T05:53:12.636Z,37.50
2018-12-03T05:55:40.852Z,37.50
2018-12-03T05:58:09.052Z,37.50
2018-12-03T06:00:37.155Z,37.60
2018-12-03T06:03:05.719Z,37.60
2018-12-03T06:05:33.847Z,37.30
2018-12-03T06:08:01.935Z,37.50
2018-12-03T06:10:30.055Z,37.50
2018-12-03T06:12:58.172Z,37.60
2018-12-03T06:15:26.298Z,37.60
2018-12-03T06:17:55.871Z,37.70
2018-12-03T06:20:24.492Z,37.70
2018-12-03T06:22:53.713Z,37.60
2018-12-03T06:25:23.540Z,37.70
2018-12-03T06:27:52.382Z,37.70
2018-12-03T06:30:21.882Z,37.70
2018-12-03T06:32:50.161Z,37.70
2018-12-03T06:35:18.584Z,37.70
2018-12-03T06:37:46.915Z,37.80
2018-12-03T06:40:18.154Z,37.70
2018-12-03T06:42:46.248Z,37.80
2018-12-03T06:45:16.078Z,37.80
2018-12-03T06:47:50.199Z,37.90
2018-12-03T06:50:18.339Z,37.80
2018-12-03T06:52:46.560Z,37.90
2018-12-03T06:55:14.707Z,38.00
2018-12-03T06:57:42.806Z,37.90
2018-12-03T07:00:15.779Z,37.90
2018-12-03T07:02:44.231Z,37.80
2018-12-03T07:05:12.428Z,37.80
2018-12-03T07:07:41.149Z,37.90
2018-12-03T07:10:13.237Z,37.90
2018-12-03T07:12:41.566Z,38.00
2018-12-03T07:15:10.878Z,38.00
2018-12-03T07:17:39.102Z,38.00
2018-12-03T07:20:09.980Z,37.90
2018-12-03T07:22:38.187Z,38.00
2018-12-03T07:25:07.783Z,38.10
2018-12-03T07:27:35.955Z,38.10
2018-12-03T07:30:07.175Z,38.30
2018-12-03T07:32:35.305Z,38.30
2018-12-03T07:35:03.465Z,38.30
2018-12-03T07:37:31.569Z,38.30
2018-12-03T07:39:59.779Z,38.30
2018-12-03T07:42:28.207Z,38.50
2018-12-03T07:44:56.344Z,38.40
2018-12-03T07:47:24.987Z,38.50
2018-12-03T07:49:53.104Z,38.40
2018-12-03T07:52:21.419Z,38.50
2018-12-03T07:54:49.526Z,38.60
2018-12-03T07:57:17.768Z,38.50
2018-12-03T07:59:45.888Z,38.50
2018-12-03T08:02:14.107Z,38.60
2018-12-03T08:04:42.208Z,38.60
2018-12-03T08:07:10.323Z,38.60
2018-12-03T08:09:38.524Z,38.60
2018-12-03T08:12:06.778Z,38.70
2018-12-03T08:14:34.895Z,38.80
2018-12-03T08:17:03.109Z,38.80
2018-12-03T08:19:31.219Z,38.80
2018-12-03T08:21:59.317Z,38.80
2018-12-03T08:24:27.508Z,38.80
2018-12-03T08:26:55.704Z,39.10
2018-12-03T08:29:23.816Z,38.90
2018-12-03T08:31:51.909Z,38.90
2018-12-03T08:34:20.029Z,39.00
2018-12-03T08:36:48.116Z,39.10
2018-12-03T08:39:16.200Z,39.30
2018-12-03T08:41:44.316Z,39.30
2018-12-03T08:44:13.542Z,40.00
2018-12-03T08:46:40.622Z,39.40
2018-12-03T08:49:08.837Z,39.50
2018-12-03T08:51:37.043Z,39.60
2018-12-03T08:54:05.443Z,39.60
2018-12-03T08:56:33.520Z,39.60
2018-12-03T08:59:01.645Z,39.70
2018-12-03T09:01:29.770Z,39.80
2018-12-03T09:04:01.139Z,39.80
2018-12-03T09:06:29.238Z,39.90
2018-12-03T09:08:57.380Z,39.90
2018-12-03T09:11:25.647Z,40.50
2018-12-03T09:13:54.084Z,39.90
2018-12-03T09:16:22.188Z,40.00
2018-12-03T09:18:50.273Z,40.00
2018-12-03T09:21:18.841Z,40.00
2018-12-03T09:23:48.307Z,40.00
2018-12-03T09:26:16.604Z,40.00
2018-12-03T09:28:44.723Z,40.10
2018-12-03T09:31:17.271Z,40.20
2018-12-03T09:33:53.814Z,40.20
2018-12-03T09:36:21.923Z,40.20
2018-12-03T09:39:13.387Z,40.20
2018-12-03T09:41:41.880Z,40.20
2018-12-03T09:44:10.123Z,40.30
2018-12-03T09:46:38.300Z,40.30
2018-12-03T09:49:07.007Z,40.40
2018-12-03T09:51:36.004Z,40.70
2018-12-03T09:54:06.891Z,40.40
2018-12-03T09:56:41.367Z,40.50
2018-12-03T09:59:12.831Z,40.50
2018-12-03T10:01:41.179Z,40.50
2018-12-03T10:04:29.193Z,40.40
2018-12-03T10:06:56.763Z,40.50
2018-12-03T10:09:24.939Z,40.50
2018-12-03T10:11:57.131Z,40.50
2018-12-03T10:14:25.255Z,40.50
2018-12-03T10:16:53.531Z,40.50
2018-12-03T10:19:21.627Z,40.50
2018-12-03T10:21:49.895Z,40.60
2018-12-03T10:24:17.959Z,40.50
2018-12-03T10:26:46.352Z,40.40
2018-12-03T10:29:15.904Z,40.50
2018-12-03T10:31:44.109Z,40.50
2018-12-03T10:34:15.567Z,40.50
2018-12-03T10:36:52.562Z,40.50
2018-12-03T10:39:22.520Z,40.40
2018-12-03T10:41:57.100Z,40.50
2018-12-03T10:44:25.335Z,40.60
2018-12-03T10:46:53.520Z,40.50
2018-12-03T10:49:21.642Z,40.40
2018-12-03T10:51:49.763Z,40.50
2018-12-03T10:54:17.995Z,40.50
2018-12-03T10:56:46.147Z,40.50
2018-12-03T10:59:14.282Z,40.60
2018-12-03T11:01:46.199Z,40.60
2018-12-03T11:04:19.838Z,40.60
2018-12-03T11:06:47.960Z,40.70
2018-12-03T11:09:16.062Z,40.50
2018-12-03T11:11:49.012Z,40.60
2018-12-03T11:14:17.283Z,40.50
2018-12-03T11:16:47.015Z,40.60
2018-12-03T11:19:15.204Z,40.60
2018-12-03T11:21:43.336Z,40.60
2018-12-03T11:24:15.748Z,40.70
2018-12-03T11:26:46.018Z,40.70
2018-12-03T11:29:14.504Z,40.70
2018-12-03T11:31:42.708Z,40.70
2018-12-03T11:34:10.849Z,40.80
2018-12-03T11:36:43.414Z,40.70
2018-12-03T11:39:18.191Z,40.70
2018-12-03T11:41:46.568Z,40.80
2018-12-03T11:44:15.024Z,41.10
2018-12-03T11:46:43.119Z,40.90
2018-12-03T11:49:11.209Z,40.90
2018-12-03T11:51:39.343Z,40.90
2018-12-03T11:54:07.516Z,41.00
2018-12-03T11:56:36.274Z,40.90
2018-12-03T11:59:04.556Z,41.50
2018-12-03T12:01:32.668Z,40.90
2018-12-03T12:04:00.749Z,41.00
2018-12-03T12:06:28.888Z,41.00
2018-12-03T12:08:56.990Z,41.00
2018-12-03T12:11:25.164Z,41.00
2018-12-03T12:13:53.258Z,41.00
2018-12-03T12:16:21.472Z,41.00
2018-12-03T12:18:49.584Z,41.00
2018-12-03T12:21:17.708Z,41.10
2018-12-03T12:23:45.848Z,41.00
2018-12-03T12:26:13.961Z,41.00
2018-12-03T12:28:42.047Z,41.10
2018-12-03T12:31:10.156Z,41.10
2018-12-03T12:33:38.259Z,41.10
2018-12-03T12:36:06.387Z,41.50
2018-12-03T12:38:34.559Z,41.10
2018-12-03T12:41:02.795Z,41.10
2018-12-03T12:43:30.928Z,41.20
2018-12-03T12:46:01.827Z,41.20
2018-12-03T12:48:29.927Z,41.30
2018-12-03T12:50:58.013Z,41.20
2018-12-03T12:53:26.130Z,41.20
2018-12-03T12:55:54.215Z,41.50
2018-12-03T12:58:22.404Z,41.20
2018-12-03T13:00:50.491Z,41.10
2018-12-03T13:03:19.251Z,41.20
2018-12-03T13:05:47.348Z,41.20
2018-12-03T13:08:15.595Z,41.20
2018-12-03T13:10:43.695Z,41.20
2018-12-03T13:13:12.038Z,41.20
2018-12-03T13:15:40.388Z,41.30
2018-12-03T13:18:09.363Z,41.30
2018-12-03T13:20:36.813Z,41.40
2018-12-03T13:23:05.281Z,41.30
2018-12-03T13:25:33.395Z,42.00
2018-12-03T13:28:01.547Z,41.30
2018-12-03T13:30:29.671Z,41.40
2018-12-03T13:32:57.764Z,41.40
2018-12-03T13:35:26.804Z,41.30
2018-12-03T13:37:54.907Z,41.40
2018-12-03T13:40:23.028Z,41.50
2018-12-03T13:42:51.180Z,41.40
2018-12-03T13:45:21.068Z,41.40
2018-12-03T13:47:49.515Z,41.30
2018-12-03T13:50:17.760Z,41.20
2018-12-03T13:52:45.952Z,41.30
2018-12-03T13:55:18.490Z,41.30
2018-12-03T13:57:46.613Z,41.50
2018-12-03T14:00:17.224Z,41.80
2018-12-03T14:02:47.909Z,41.60
2018-12-03T14:05:17.031Z,41.30
2018-12-03T14:07:50.743Z,40.70
2018-12-03T14:12:33.035Z,40.70
2018-12-03T14:15:10.519Z,40.00
2018-12-03T14:18:14.251Z,39.50
2018-12-03T14:20:44.955Z,39.20
2018-12-03T14:23:15.199Z,39.00
2018-12-03T14:25:43.348Z,39.10
2018-12-03T14:28:11.512Z,39.20
2018-12-03T14:30:39.604Z,39.30
2018-12-03T14:33:07.738Z,39.20
2018-12-03T14:35:35.830Z,38.80
2018-12-03T14:38:03.995Z,38.90
2018-12-03T14:40:32.203Z,38.50
2018-12-03T14:43:00.349Z,38.50
2018-12-03T14:45:28.458Z,38.40
2018-12-03T14:47:56.632Z,38.10
2018-12-03T14:50:24.740Z,38.40
2018-12-03T14:52:52.876Z,38.10
2018-12-03T14:55:21.051Z,38.90
2018-12-03T14:57:49.290Z,38.30
2018-12-03T15:00:17.495Z,38.40
2018-12-03T15:02:45.575Z,38.00
2018-12-03T15:05:13.763Z,37.60
2018-12-03T15:07:41.864Z,37.80
2018-12-03T15:10:10.250Z,38.10
2018-12-03T15:12:38.457Z,37.80
2018-12-03T15:15:08.588Z,38.10
2018-12-03T15:18:08.735Z,38.40
2018-12-03T15:20:36.181Z,38.60
2018-12-03T15:23:03.639Z,38.80
2018-12-03T15:25:31.096Z,39.60
2018-12-03T15:27:58.552Z,39.00
2018-12-03T15:30:26.005Z,38.60
2018-12-03T15:32:53.494Z,38.60
2018-12-03T15:35:20.931Z,39.70
2018-12-03T15:37:48.387Z,39.90
2018-12-03T15:40:15.840Z,40.00
2018-12-03T15:42:43.303Z,39.90
2018-12-03T15:45:10.877Z,40.20
2018-12-03T15:47:38.806Z,40.20
2018-12-03T15:50:06.364Z,40.60
2018-12-03T15:52:33.837Z,40.60
2018-12-03T15:55:01.292Z,40.50
2018-12-03T15:57:28.778Z,40.30
2018-12-03T15:59:56.348Z,41.20
2018-12-03T16:02:23.902Z,41.20
2018-12-03T16:04:51.584Z,41.40
2018-12-03T16:07:19.147Z,41.40
2018-12-03T16:09:46.678Z,42.10
2018-12-03T16:12:14.501Z,42.00
2018-12-03T16:14:42.619Z,42.00
2018-12-03T16:17:10.077Z,42.00
2018-12-03T16:19:37.540Z,42.20
2018-12-03T16:22:04.994Z,42.30
2018-12-03T16:24:32.456Z,42.50
2018-12-03T16:26:59.913Z,42.60
2018-12-03T16:29:27.367Z,42.60
2018-12-03T16:31:54.823Z,42.70
2018-12-03T16:34:22.328Z,42.90
2018-12-03T16:36:49.779Z,42.90
2018-12-03T16:39:17.439Z,43.00
2018-12-03T16:41:44.972Z,43.10
2018-12-03T16:44:12.433Z,43.10
2018-12-03T16:46:39.914Z,43.30
2018-12-03T16:49:07.372Z,43.40
2018-12-03T16:51:34.835Z,43.40
2018-12-03T16:54:02.439Z,43.40
2018-12-03T16:56:29.899Z,43.50
2018-12-03T16:58:57.434Z,43.50
2018-12-03T17:01:24.896Z,43.80
2018-12-03T17:03:52.371Z,43.90
2018-12-03T17:06:19.887Z,43.90
2018-12-03T17:08:47.391Z,44.00
2018-12-03T17:11:15.202Z,44.10
2018-12-03T17:13:42.664Z,44.70
2018-12-03T17:16:10.533Z,44.20
2018-12-03T17:18:38.032Z,44.30
2018-12-03T17:21:05.606Z,44.50
2018-12-03T17:23:33.076Z,44.40
2018-12-03T17:26:00.635Z,44.40
2018-12-03T17:28:28.221Z,43.90
2018-12-03T17:30:55.740Z,44.80
2018-12-03T17:33:23.183Z,44.60
2018-12-03T17:35:50.926Z,44.60
2018-12-03T17:38:19.242Z,44.70
2018-12-03T17:40:46.735Z,44.80
2018-12-03T17:43:14.344Z,44.90
2018-12-03T17:45:41.997Z,45.00
2018-12-03T17:48:13.584Z,45.00
2018-12-03T17:50:41.127Z,45.10
2018-12-03T17:53:08.842Z,45.10
2018-12-03T17:55:36.384Z,45.20
2018-12-03T17:58:03.847Z,45.20
2018-12-03T18:00:31.285Z,45.30
2018-12-03T18:02:58.747Z,45.40
2018-12-03T18:05:26.204Z,45.30
2018-12-03T18:07:53.656Z,45.70
2018-12-03T18:10:21.154Z,45.30
2018-12-03T18:12:50.135Z,45.40
2018-12-03T18:15:17.593Z,45.50
2018-12-03T18:17:45.084Z,45.40
2018-12-03T18:20:12.602Z,45.80
2018-12-03T18:22:40.107Z,45.50
2018-12-03T18:25:07.638Z,45.50
2018-12-03T18:27:35.212Z,45.50
2018-12-03T18:30:03.311Z,45.60
2018-12-03T18:32:30.781Z,45.60
2018-12-03T18:34:58.267Z,45.60
2018-12-03T18:37:25.763Z,45.60
2018-12-03T18:39:53.221Z,45.70
2018-12-03T18:42:20.679Z,45.70
2018-12-03T18:44:48.196Z,45.70
2018-12-03T18:47:15.656Z,45.70
2018-12-03T18:49:43.155Z,45.80
2018-12-03T18:52:10.673Z,45.90
2018-12-03T18:54:38.488Z,45.90
2018-12-03T18:57:06.128Z,46.00
2018-12-03T18:59:33.694Z,46.60
2018-12-03T19:02:01.883Z,46.00
2018-12-03T19:04:29.384Z,46.10
2018-12-03T19:06:56.823Z,46.10
2018-12-03T19:09:24.271Z,46.20
2018-12-03T19:11:51.755Z,46.20
2018-12-03T19:14:19.234Z,46.20
2018-12-03T19:16:46.664Z,46.20
2018-12-03T19:19:14.135Z,46.30
2018-12-03T19:21:41.586Z,46.30
2018-12-03T19:24:09.123Z,46.40
2018-12-03T19:26:36.596Z,47.00
2018-12-03T19:29:04.258Z,46.30
2018-12-03T19:31:31.799Z,47.00
2018-12-03T19:33:59.481Z,46.50
2018-12-03T19:36:26.990Z,46.40
2018-12-03T19:38:56.356Z,46.50
2018-12-03T19:41:23.836Z,46.50
2018-12-03T19:43:51.425Z,46.80
2018-12-03T19:46:18.915Z,46.60
2018-12-03T19:48:46.351Z,46.60
2018-12-03T19:51:13.828Z,46.60
2018-12-03T19:53:41.279Z,46.60
2018-12-03T19:56:08.777Z,46.60
2018-12-03T19:58:36.293Z,46.70
2018-12-03T20:01:04.108Z,46.70
2018-12-03T20:03:31.596Z,46.80
2018-12-03T20:05:59.070Z,46.80
2018-12-03T20:08:26.543Z,46.80
2018-12-03T20:10:54.272Z,46.90
2018-12-03T20:13:21.749Z,46.90
2018-12-03T20:15:49.197Z,47.00
2018-12-03T20:18:16.659Z,46.90
2018-12-03T20:20:44.132Z,47.00
2018-12-03T20:23:11.720Z,47.00
2018-12-03T20:25:39.727Z,47.00
2018-12-03T20:28:07.506Z,47.10
2018-12-03T20:30:37.237Z,47.80
2018-12-03T20:33:04.709Z,47.30
2018-12-03T20:35:32.621Z,47.30
2018-12-03T20:38:00.847Z,47.10
2018-12-03T20:40:28.823Z,47.40
2018-12-03T20:42:57.244Z,47.50
2018-12-03T20:45:36.770Z,48.10
2018-12-03T20:48:05.544Z,47.50
2018-12-03T20:50:33.198Z,47.60
2018-12-03T20:53:01.416Z,47.80
2018-12-03T20:55:29.390Z,47.80
2018-12-03T20:57:57.271Z,47.90
2018-12-03T21:00:24.796Z,48.00
2018-12-03T21:02:52.308Z,48.00
2018-12-03T21:05:19.805Z,48.10
2018-12-03T21:07:47.879Z,48.10
2018-12-03T21:10:15.451Z,48.20
2018-12-03T21:12:43.880Z,48.20
2018-12-03T21:15:11.459Z,48.30
2018-12-03T21:17:39.022Z,48.50
2018-12-03T21:20:10.158Z,48.50
2018-12-03T21:22:37.660Z,48.50
2018-12-03T21:25:05.496Z,48.50
2018-12-03T21:27:33.098Z,48.20
2018-12-03T21:30:00.606Z,48.20
2018-12-03T21:32:29.041Z,48.10
2018-12-03T21:34:57.010Z,48.10
2018-12-03T21:37:24.675Z,48.00
2018-12-03T21:39:52.133Z,47.90
2018-12-03T21:42:19.591Z,48.00
2018-12-03T21:44:47.028Z,48.10
2018-12-03T21:47:14.490Z,48.20
2018-12-03T21:49:41.948Z,48.20
2018-12-03T21:52:09.483Z,48.20
2018-12-03T21:54:36.987Z,48.10
2018-12-03T21:57:04.459Z,48.20
2018-12-03T21:59:31.919Z,48.20
2018-12-03T22:01:59.379Z,48.20
2018-12-03T22:04:26.855Z,48.10
2018-12-03T22:06:54.303Z,48.10
2018-12-03T22:09:21.759Z,48.00
2018-12-03T22:11:49.203Z,47.90
2018-12-03T22:14:16.765Z,47.80
2018-12-03T22:16:44.320Z,47.70
2018-12-03T22:19:11.777Z,47.70
2018-12-03T22:21:39.211Z,47.60
2018-12-03T22:24:06.656Z,47.60
2018-12-03T22:26:34.086Z,47.50
2018-12-03T22:29:01.656Z,47.50
2018-12-03T22:31:29.271Z,47.30
2018-12-03T22:33:56.708Z,47.30
2018-12-03T22:36:24.251Z,47.20
2018-12-03T22:38:51.706Z,47.10
2018-12-03T22:41:19.145Z,47.10
2018-12-03T22:43:46.587Z,47.00
2018-12-03T22:46:14.043Z,46.80
2018-12-03T22:48:41.531Z,46.80
2018-12-03T22:51:08.959Z,46.60
2018-12-03T22:53:36.419Z,46.50
2018-12-03T22:56:03.958Z,46.40
2018-12-03T22:58:31.445Z,46.30
2018-12-03T23:01:00.866Z,46.10
2018-12-03T23:03:28.378Z,46.00
2018-12-03T23:05:55.910Z,45.90
2018-12-03T23:08:23.478Z,45.70
2018-12-03T23:10:51.043Z,45.60
2018-12-03T23:13:18.504Z,45.50
2018-12-03T23:15:46.047Z,45.40
2018-12-03T23:18:13.476Z,45.20
2018-12-03T23:20:40.914Z,45.10
2018-12-03T23:23:08.381Z,45.00
2018-12-03T23:25:35.895Z,44.80
2018-12-03T23:28:03.439Z,44.80
2018-12-03T23:30:30.927Z,44.50
2018-12-03T23:32:58.372Z,44.30
2018-12-03T23:35:25.860Z,44.20
2018-12-03T23:37:53.303Z,44.00
2018-12-03T23:40:20.756Z,43.80
2018-12-03T23:42:48.199Z,43.90
2018-12-03T23:45:15.664Z,43.60
2018-12-03T23:47:43.100Z,43.50
2018-12-03T23:50:10.549Z,43.30
2018-12-03T23:52:38.009Z,43.10
2018-12-03T23:55:05.430Z,43.00
2018-12-03T23:57:32.880Z,42.80
